createdAt,value
2019-01-17T00:04:48.827Z,47.80
2019-01-17T00:17:56.016Z,47.90
2019-01-17T00:31:19.679Z,48.10
2019-01-17T00:58:17.333Z,48.30
2019-01-17T01:24:29.814Z,48.40
2019-01-17T01:37:37.005Z,48.50
2019-01-17T02:03:49.094Z,48.70
2019-01-17T02:16:56.304Z,48.70
2019-01-17T02:30:03.530Z,48.80
2019-01-17T02:43:10.707Z,48.90
2019-01-17T02:56:17.928Z,48.90
2019-01-17T03:09:25.246Z,49.00
2019-01-17T03:35:50.545Z,49.10
2019-01-17T03:48:57.759Z,49.20
2019-01-17T04:02:04.934Z,49.20
2019-01-17T04:15:12.200Z,49.30
2019-01-17T04:28:19.364Z,49.30
2019-01-17T04:41:26.540Z,49.40
2019-01-17T04:54:50.214Z,50.00
2019-01-17T05:08:13.118Z,49.40
2019-01-17T05:21:35.873Z,49.40
2019-01-17T05:48:00.403Z,49.30
2019-01-17T06:01:07.608Z,49.80
2019-01-17T06:14:14.795Z,49.10
2019-01-17T06:27:22.009Z,49.10
2019-01-17T06:40:29.179Z,49.10
2019-01-17T07:06:38.943Z,49.40
2019-01-17T07:19:46.079Z,49.50
2019-01-17T07:32:53.223Z,49.20
2019-01-17T07:46:00.390Z,49.10
2019-01-17T07:59:07.547Z,49.00
2019-01-17T08:12:14.686Z,48.60
2019-01-17T08:25:38.656Z,48.50
2019-01-17T08:39:01.514Z,48.30
2019-01-17T08:52:24.298Z,48.00
2019-01-17T09:05:47.144Z,47.70
2019-01-17T09:19:09.962Z,45.00
2019-01-17T09:32:32.745Z,43.40
2019-01-17T09:58:57.355Z,43.40
2019-01-17T10:12:04.507Z,43.80
2019-01-17T10:25:11.661Z,44.10
2019-01-17T10:38:18.876Z,45.10
2019-01-17T10:51:26.007Z,44.90
2019-01-17T11:04:33.162Z,45.20
2019-01-17T11:17:56.990Z,45.60
2019-01-17T11:31:19.783Z,45.90
2019-01-17T11:44:42.647Z,45.80
2019-01-17T11:58:05.429Z,46.00
2019-01-17T12:11:28.254Z,46.60
2019-01-17T12:24:51.076Z,46.80
2019-01-17T12:38:13.851Z,46.90
2019-01-17T12:51:36.728Z,47.20
2019-01-17T13:04:59.501Z,47.30
2019-01-17T13:18:22.316Z,47.50
2019-01-17T13:31:45.324Z,47.70
2019-01-17T13:45:08.071Z,47.70
2019-01-17T13:58:30.899Z,47.70
2019-01-17T14:11:53.598Z,47.80
2019-01-17T14:25:16.457Z,48.00
2019-01-17T14:38:39.216Z,48.20
2019-01-17T14:52:02.050Z,48.10
2019-01-17T15:05:24.851Z,48.80
2019-01-17T15:18:47.645Z,49.00
2019-01-17T15:32:10.493Z,49.10
2019-01-17T15:45:33.295Z,49.10
2019-01-17T15:58:56.124Z,49.00
2019-01-17T16:25:20.649Z,49.20
2019-01-17T16:38:27.808Z,49.10
2019-01-17T17:17:46.329Z,49.80
2019-01-17T17:30:53.513Z,44.60
2019-01-17T17:44:00.763Z,42.20
2019-01-17T17:57:07.934Z,40.70
2019-01-17T18:10:15.076Z,40.20
2019-01-17T18:36:24.932Z,42.40
2019-01-17T18:49:32.058Z,43.70
2019-01-17T19:02:39.287Z,43.60
2019-01-17T19:15:46.474Z,43.90
2019-01-17T19:28:53.760Z,43.90
2019-01-17T19:42:18.280Z,44.30
2019-01-17T19:55:41.065Z,44.50
2019-01-17T20:09:03.871Z,44.80
2019-01-17T20:22:26.688Z,45.00
2019-01-17T20:35:49.526Z,45.20
2019-01-17T20:49:12.349Z,45.20
2019-01-17T21:02:35.164Z,45.40
2019-01-17T21:16:01.180Z,45.40
2019-01-17T21:29:20.769Z,45.60
2019-01-17T21:42:43.566Z,45.60
2019-01-17T21:56:06.380Z,45.60
2019-01-17T22:09:29.241Z,45.70
2019-01-17T22:22:52.026Z,45.80
2019-01-17T22:36:15.686Z,45.80
2019-01-17T22:49:37.646Z,45.90
2019-01-17T23:03:00.455Z,46.00
2019-01-17T23:16:23.433Z,46.10
2019-01-17T23:29:46.170Z,46.30
2019-01-17T23:43:08.887Z,46.30
2019-01-17T23:56:31.768Z,46.40
